Huvudsida
METAR-TAF:

METAR-TAF

Flygplatser :

Göteborg-Landvetter Airport

Göteborg-Landvetter, Sverige

latitud: 57-40N, longitud: 012-18E, höjd: 169 m

Aktuellt väderrapport

Denna rapport gjordes för 27 minuter sedan, klockan 09:20 UTC
Vind 4 kt från sydost, varierande mellan ost/nordost och syd
Temperatur 19°C
Fuktighet 34%
Tryck 1020 hPa
Sikt 10 km eller mer
Inga moln under 1 500 m eller inga cumulonimbus

METAR: ESGG 220920Z 13004KT 070V170 CAVOK 19/03 Q1020

Tid: 11:47 (09:47 UTC)

Väderprognos

Denna rapport gjordes för 4 timmar och 17 minuter sedan, klockan 05:30 UTC
Prognos gäller från 22 kl. 06 UTC till 23 kl. 06 UTC
Vind 4 kt från ost/sydost
Sikt 10 km eller mer
Inga moln under 1 500 m eller inga cumulonimbus

TAF: ESGG 220530Z 2206/2306 12004KT CAVOK

Aktuella väderrapporter och prognoser från 4000 flygplatser (METAR- och TAF-rapporter).

De tillgängliga stationerna syns som gula och röda prickar på kartan.

För musen över prickarna för att se namnen på stationerna.

Klicka sedan för att få väderrapporter och prognoser.

För att ändra kartan: Klicka på de gröna knapparna med ett svart kors på för att zooma in; den gröna knappen med ett streck på för att zooma ut; eller på de gröna pilarna för angränsande kartor.


METAR-TAF: